sensor_id;sensor_type;location;lat;lon;timestamp;temperature;humidity
7658;DHT22;8462;53.156;8.220;2023-05-14T00:01:14;15.70;77.20
7658;DHT22;8462;53.156;8.220;2023-05-14T00:03:40;15.70;77.20
7658;DHT22;8462;53.156;8.220;2023-05-14T00:06:07;15.60;77.20
7658;DHT22;8462;53.156;8.220;2023-05-14T00:08:35;15.70;77.20
7658;DHT22;8462;53.156;8.220;2023-05-14T00:11:02;15.60;77.20
7658;DHT22;8462;53.156;8.220;2023-05-14T00:13:30;15.70;77.20
7658;DHT22;8462;53.156;8.220;2023-05-14T00:15:57;15.70;77.20
7658;DHT22;8462;53.156;8.220;2023-05-14T00:18:24;15.60;77.60
7658;DHT22;8462;53.156;8.220;2023-05-14T00:20:51;15.60;77.70
7658;DHT22;8462;53.156;8.220;2023-05-14T00:23:19;15.60;77.80
7658;DHT22;8462;53.156;8.220;2023-05-14T00:25:46;15.60;77.80
7658;DHT22;8462;53.156;8.220;2023-05-14T00:28:13;15.60;77.80
7658;DHT22;8462;53.156;8.220;2023-05-14T00:30:41;15.60;78.20
7658;DHT22;8462;53.156;8.220;2023-05-14T00:33:08;15.60;77.90
7658;DHT22;8462;53.156;8.220;2023-05-14T00:35:35;15.50;77.50
7658;DHT22;8462;53.156;8.220;2023-05-14T00:38:03;15.50;77.40
7658;DHT22;8462;53.156;8.220;2023-05-14T00:40:30;15.50;77.50
7658;DHT22;8462;53.156;8.220;2023-05-14T00:42:57;15.50;77.30
7658;DHT22;8462;53.156;8.220;2023-05-14T00:45:24;15.40;77.30
7658;DHT22;8462;53.156;8.220;2023-05-14T00:47:52;15.50;77.30
7658;DHT22;8462;53.156;8.220;2023-05-14T00:50:20;15.40;77.40
7658;DHT22;8462;53.156;8.220;2023-05-14T00:52:47;15.40;77.60
7658;DHT22;8462;53.156;8.220;2023-05-14T00:55:15;15.40;78.00
7658;DHT22;8462;53.156;8.220;2023-05-14T00:57:43;15.40;78.20
7658;DHT22;8462;53.156;8.220;2023-05-14T01:00:10;15.40;78.30
7658;DHT22;8462;53.156;8.220;2023-05-14T01:02:37;15.30;78.20
7658;DHT22;8462;53.156;8.220;2023-05-14T01:05:06;15.30;78.30
7658;DHT22;8462;53.156;8.220;2023-05-14T01:07:52;15.30;79.10
7658;DHT22;8462;53.156;8.220;2023-05-14T01:10:29;15.20;79.40
7658;DHT22;8462;53.156;8.220;2023-05-14T01:13:03;15.10;79.30
7658;DHT22;8462;53.156;8.220;2023-05-14T01:15:35;15.10;79.70
7658;DHT22;8462;53.156;8.220;2023-05-14T01:18:04;15.10;79.50
7658;DHT22;8462;53.156;8.220;2023-05-14T01:20:34;15.10;79.60
7658;DHT22;8462;53.156;8.220;2023-05-14T01:23:03;15.10;79.60
7658;DHT22;8462;53.156;8.220;2023-05-14T01:25:30;15.10;79.60
7658;DHT22;8462;53.156;8.220;2023-05-14T01:27:59;15.10;79.40
7658;DHT22;8462;53.156;8.220;2023-05-14T01:30:31;15.10;79.50
7658;DHT22;8462;53.156;8.220;2023-05-14T01:33:02;15.10;79.60
7658;DHT22;8462;53.156;8.220;2023-05-14T01:35:31;15.10;79.80
7658;DHT22;8462;53.156;8.220;2023-05-14T01:38:00;15.10;80.10
7658;DHT22;8462;53.156;8.220;2023-05-14T01:40:29;15.00;80.00
7658;DHT22;8462;53.156;8.220;2023-05-14T01:42:56;15.00;79.90
7658;DHT22;8462;53.156;8.220;2023-05-14T01:45:24;15.00;79.90
7658;DHT22;8462;53.156;8.220;2023-05-14T01:47:51;15.00;79.90
7658;DHT22;8462;53.156;8.220;2023-05-14T01:50:18;15.00;80.00
7658;DHT22;8462;53.156;8.220;2023-05-14T01:52:45;15.00;80.00
7658;DHT22;8462;53.156;8.220;2023-05-14T01:55:13;14.90;80.10
7658;DHT22;8462;53.156;8.220;2023-05-14T01:57:41;14.90;80.00
7658;DHT22;8462;53.156;8.220;2023-05-14T02:00:09;14.90;80.20
7658;DHT22;8462;53.156;8.220;2023-05-14T02:02:42;14.90;81.40
7658;DHT22;8462;53.156;8.220;2023-05-14T02:05:11;14.80;80.80
7658;DHT22;8462;53.156;8.220;2023-05-14T02:07:38;14.80;81.20
7658;DHT22;8462;53.156;8.220;2023-05-14T02:10:07;14.70;81.50
7658;DHT22;8462;53.156;8.220;2023-05-14T02:12:34;14.70;81.50
7658;DHT22;8462;53.156;8.220;2023-05-14T02:15:02;14.60;81.60
7658;DHT22;8462;53.156;8.220;2023-05-14T02:17:29;14.60;81.90
7658;DHT22;8462;53.156;8.220;2023-05-14T02:19:56;14.60;82.10
7658;DHT22;8462;53.156;8.220;2023-05-14T02:22:23;14.60;82.10
7658;DHT22;8462;53.156;8.220;2023-05-14T02:24:50;14.60;82.10
7658;DHT22;8462;53.156;8.220;2023-05-14T02:27:17;14.60;82.10
7658;DHT22;8462;53.156;8.220;2023-05-14T02:29:44;14.60;82.00
7658;DHT22;8462;53.156;8.220;2023-05-14T02:32:12;14.60;82.10
7658;DHT22;8462;53.156;8.220;2023-05-14T02:34:41;14.60;82.10
7658;DHT22;8462;53.156;8.220;2023-05-14T02:37:08;14.60;82.20
7658;DHT22;8462;53.156;8.220;2023-05-14T02:39:36;14.60;82.40
7658;DHT22;8462;53.156;8.220;2023-05-14T02:42:03;14.50;82.50
7658;DHT22;8462;53.156;8.220;2023-05-14T02:44:30;14.50;82.70
7658;DHT22;8462;53.156;8.220;2023-05-14T02:46:57;14.50;82.80
7658;DHT22;8462;53.156;8.220;2023-05-14T02:49:25;14.50;82.80
7658;DHT22;8462;53.156;8.220;2023-05-14T02:51:52;14.50;83.00
7658;DHT22;8462;53.156;8.220;2023-05-14T02:54:20;14.50;83.00
7658;DHT22;8462;53.156;8.220;2023-05-14T02:56:46;14.50;83.10
7658;DHT22;8462;53.156;8.220;2023-05-14T02:59:13;14.50;83.20
7658;DHT22;8462;53.156;8.220;2023-05-14T03:01:40;14.50;83.20
7658;DHT22;8462;53.156;8.220;2023-05-14T03:04:07;14.50;83.20
7658;DHT22;8462;53.156;8.220;2023-05-14T03:06:35;14.50;83.40
7658;DHT22;8462;53.156;8.220;2023-05-14T03:09:02;14.50;83.50
7658;DHT22;8462;53.156;8.220;2023-05-14T03:11:29;14.40;83.70
7658;DHT22;8462;53.156;8.220;2023-05-14T03:13:56;14.40;83.70
7658;DHT22;8462;53.156;8.220;2023-05-14T03:16:23;14.40;83.70
7658;DHT22;8462;53.156;8.220;2023-05-14T03:18:50;14.40;83.60
7658;DHT22;8462;53.156;8.220;2023-05-14T03:21:17;14.50;83.70
7658;DHT22;8462;53.156;8.220;2023-05-14T03:23:45;14.50;83.60
7658;DHT22;8462;53.156;8.220;2023-05-14T03:26:12;14.50;83.60
7658;DHT22;8462;53.156;8.220;2023-05-14T03:28:39;14.50;83.60
7658;DHT22;8462;53.156;8.220;2023-05-14T03:31:08;14.50;83.50
7658;DHT22;8462;53.156;8.220;2023-05-14T03:33:36;14.50;83.80
7658;DHT22;8462;53.156;8.220;2023-05-14T03:36:03;14.50;84.70
7658;DHT22;8462;53.156;8.220;2023-05-14T03:38:30;14.40;83.90
7658;DHT22;8462;53.156;8.220;2023-05-14T03:41:00;14.50;84.00
7658;DHT22;8462;53.156;8.220;2023-05-14T03:43:26;14.40;84.20
7658;DHT22;8462;53.156;8.220;2023-05-14T03:45:54;14.40;84.30
7658;DHT22;8462;53.156;8.220;2023-05-14T03:48:21;14.40;84.40
7658;DHT22;8462;53.156;8.220;2023-05-14T03:50:48;14.40;84.50
7658;DHT22;8462;53.156;8.220;2023-05-14T03:53:15;14.40;84.40
7658;DHT22;8462;53.156;8.220;2023-05-14T03:55:44;14.40;84.40
7658;DHT22;8462;53.156;8.220;2023-05-14T03:58:12;14.40;84.20
7658;DHT22;8462;53.156;8.220;2023-05-14T04:00:40;14.40;84.30
7658;DHT22;8462;53.156;8.220;2023-05-14T04:03:07;14.40;85.20
7658;DHT22;8462;53.156;8.220;2023-05-14T04:05:34;14.40;85.40
7658;DHT22;8462;53.156;8.220;2023-05-14T04:08:01;14.40;85.40
7658;DHT22;8462;53.156;8.220;2023-05-14T04:10:28;14.30;85.80
7658;DHT22;8462;53.156;8.220;2023-05-14T04:12:55;14.40;86.10
7658;DHT22;8462;53.156;8.220;2023-05-14T04:15:27;14.30;86.30
7658;DHT22;8462;53.156;8.220;2023-05-14T04:17:56;14.30;86.40
7658;DHT22;8462;53.156;8.220;2023-05-14T04:20:23;14.30;86.40
7658;DHT22;8462;53.156;8.220;2023-05-14T04:22:51;14.30;86.30
7658;DHT22;8462;53.156;8.220;2023-05-14T04:25:18;14.20;86.10
7658;DHT22;8462;53.156;8.220;2023-05-14T04:27:45;14.20;86.20
7658;DHT22;8462;53.156;8.220;2023-05-14T04:30:12;14.30;85.90
7658;DHT22;8462;53.156;8.220;2023-05-14T04:32:43;14.30;85.80
7658;DHT22;8462;53.156;8.220;2023-05-14T04:35:10;14.30;85.70
7658;DHT22;8462;53.156;8.220;2023-05-14T04:37:37;14.30;85.80
7658;DHT22;8462;53.156;8.220;2023-05-14T04:40:06;14.20;86.10
7658;DHT22;8462;53.156;8.220;2023-05-14T04:42:33;14.20;86.10
7658;DHT22;8462;53.156;8.220;2023-05-14T04:45:00;14.30;85.90
7658;DHT22;8462;53.156;8.220;2023-05-14T04:47:29;14.40;85.90
7658;DHT22;8462;53.156;8.220;2023-05-14T04:49:57;14.40;85.30
7658;DHT22;8462;53.156;8.220;2023-05-14T04:52:24;14.50;85.10
7658;DHT22;8462;53.156;8.220;2023-05-14T04:54:51;14.50;85.00
7658;DHT22;8462;53.156;8.220;2023-05-14T04:57:18;14.60;84.70
7658;DHT22;8462;53.156;8.220;2023-05-14T04:59:45;14.70;84.40
7658;DHT22;8462;53.156;8.220;2023-05-14T05:02:12;14.70;84.10
7658;DHT22;8462;53.156;8.220;2023-05-14T05:04:39;14.70;84.30
7658;DHT22;8462;53.156;8.220;2023-05-14T05:07:07;14.80;84.10
7658;DHT22;8462;53.156;8.220;2023-05-14T05:09:34;14.80;84.60
7658;DHT22;8462;53.156;8.220;2023-05-14T05:12:01;14.80;84.50
7658;DHT22;8462;53.156;8.220;2023-05-14T05:14:28;14.80;84.50
7658;DHT22;8462;53.156;8.220;2023-05-14T05:16:54;14.90;84.40
7658;DHT22;8462;53.156;8.220;2023-05-14T05:19:21;14.90;84.30
7658;DHT22;8462;53.156;8.220;2023-05-14T05:21:48;14.90;85.20
7658;DHT22;8462;53.156;8.220;2023-05-14T05:24:17;15.00;84.30
7658;DHT22;8462;53.156;8.220;2023-05-14T05:26:43;15.10;84.30
7658;DHT22;8462;53.156;8.220;2023-05-14T05:29:10;15.20;84.10
7658;DHT22;8462;53.156;8.220;2023-05-14T05:31:37;15.20;84.20
7658;DHT22;8462;53.156;8.220;2023-05-14T05:34:04;15.30;83.90
7658;DHT22;8462;53.156;8.220;2023-05-14T05:36:31;15.30;84.10
7658;DHT22;8462;53.156;8.220;2023-05-14T05:38:58;15.40;84.10
7658;DHT22;8462;53.156;8.220;2023-05-14T05:41:26;15.50;83.70
7658;DHT22;8462;53.156;8.220;2023-05-14T05:43:54;15.50;83.40
7658;DHT22;8462;53.156;8.220;2023-05-14T05:46:21;15.60;83.50
7658;DHT22;8462;53.156;8.220;2023-05-14T05:48:48;15.70;83.30
7658;DHT22;8462;53.156;8.220;2023-05-14T05:51:15;15.70;83.20
7658;DHT22;8462;53.156;8.220;2023-05-14T05:53:42;15.80;83.60
7658;DHT22;8462;53.156;8.220;2023-05-14T05:56:08;15.90;82.60
7658;DHT22;8462;53.156;8.220;2023-05-14T05:58:37;16.10;82.60
7658;DHT22;8462;53.156;8.220;2023-05-14T06:01:04;16.20;82.60
7658;DHT22;8462;53.156;8.220;2023-05-14T06:03:31;16.40;82.10
7658;DHT22;8462;53.156;8.220;2023-05-14T06:05:58;16.50;81.20
7658;DHT22;8462;53.156;8.220;2023-05-14T06:08:25;16.60;81.10
7658;DHT22;8462;53.156;8.220;2023-05-14T06:10:52;16.70;80.20
7658;DHT22;8462;53.156;8.220;2023-05-14T06:13:19;16.80;80.60
7658;DHT22;8462;53.156;8.220;2023-05-14T06:15:47;16.90;79.80
7658;DHT22;8462;53.156;8.220;2023-05-14T06:18:14;17.00;79.20
7658;DHT22;8462;53.156;8.220;2023-05-14T06:20:41;17.00;79.60
7658;DHT22;8462;53.156;8.220;2023-05-14T06:23:08;17.00;79.90
7658;DHT22;8462;53.156;8.220;2023-05-14T06:25:36;17.10;79.60
7658;DHT22;8462;53.156;8.220;2023-05-14T06:28:03;17.20;79.90
7658;DHT22;8462;53.156;8.220;2023-05-14T06:30:30;17.30;80.20
7658;DHT22;8462;53.156;8.220;2023-05-14T06:32:58;17.60;79.60
7658;DHT22;8462;53.156;8.220;2023-05-14T06:35:25;17.80;78.30
7658;DHT22;8462;53.156;8.220;2023-05-14T06:37:52;18.00;77.70
7658;DHT22;8462;53.156;8.220;2023-05-14T06:40:19;18.10;77.30
7658;DHT22;8462;53.156;8.220;2023-05-14T06:42:46;18.30;76.40
7658;DHT22;8462;53.156;8.220;2023-05-14T06:45:13;18.30;75.90
7658;DHT22;8462;53.156;8.220;2023-05-14T06:47:40;18.40;75.90
7658;DHT22;8462;53.156;8.220;2023-05-14T06:50:09;18.50;76.30
7658;DHT22;8462;53.156;8.220;2023-05-14T06:52:36;18.70;76.00
7658;DHT22;8462;53.156;8.220;2023-05-14T06:55:04;18.90;74.70
7658;DHT22;8462;53.156;8.220;2023-05-14T06:57:32;18.90;74.90
7658;DHT22;8462;53.156;8.220;2023-05-14T06:59:59;19.10;74.70
7658;DHT22;8462;53.156;8.220;2023-05-14T07:02:26;19.20;73.70
7658;DHT22;8462;53.156;8.220;2023-05-14T07:04:53;19.30;74.50
7658;DHT22;8462;53.156;8.220;2023-05-14T07:07:21;19.50;74.00
7658;DHT22;8462;53.156;8.220;2023-05-14T07:09:48;19.80;73.50
7658;DHT22;8462;53.156;8.220;2023-05-14T07:12:15;20.10;72.60
7658;DHT22;8462;53.156;8.220;2023-05-14T07:14:42;20.30;71.70
7658;DHT22;8462;53.156;8.220;2023-05-14T07:17:09;20.60;72.10
7658;DHT22;8462;53.156;8.220;2023-05-14T07:19:36;20.90;70.00
7658;DHT22;8462;53.156;8.220;2023-05-14T07:22:03;21.30;69.70
7658;DHT22;8462;53.156;8.220;2023-05-14T07:24:31;21.70;67.60
7658;DHT22;8462;53.156;8.220;2023-05-14T07:26:58;22.20;66.40
7658;DHT22;8462;53.156;8.220;2023-05-14T07:29:26;22.60;65.20
7658;DHT22;8462;53.156;8.220;2023-05-14T07:31:54;23.00;64.10
7658;DHT22;8462;53.156;8.220;2023-05-14T07:34:21;23.40;58.80
7658;DHT22;8462;53.156;8.220;2023-05-14T07:36:48;23.50;57.80
7658;DHT22;8462;53.156;8.220;2023-05-14T07:39:15;23.40;58.50
7658;DHT22;8462;53.156;8.220;2023-05-14T07:41:43;23.40;57.20
7658;DHT22;8462;53.156;8.220;2023-05-14T07:44:10;23.10;58.10
7658;DHT22;8462;53.156;8.220;2023-05-14T07:46:37;22.80;58.90
7658;DHT22;8462;53.156;8.220;2023-05-14T07:49:04;22.60;59.20
7658;DHT22;8462;53.156;8.220;2023-05-14T07:51:30;22.40;59.40
7658;DHT22;8462;53.156;8.220;2023-05-14T07:53:58;22.40;60.30
7658;DHT22;8462;53.156;8.220;2023-05-14T07:56:27;22.40;60.00
7658;DHT22;8462;53.156;8.220;2023-05-14T07:58:55;22.40;59.70
7658;DHT22;8462;53.156;8.220;2023-05-14T08:01:22;22.30;60.50
7658;DHT22;8462;53.156;8.220;2023-05-14T08:03:49;22.20;61.20
7658;DHT22;8462;53.156;8.220;2023-05-14T08:06:16;22.20;61.10
7658;DHT22;8462;53.156;8.220;2023-05-14T08:08:45;22.20;61.40
7658;DHT22;8462;53.156;8.220;2023-05-14T08:11:12;22.20;60.90
7658;DHT22;8462;53.156;8.220;2023-05-14T08:13:39;22.20;61.10
7658;DHT22;8462;53.156;8.220;2023-05-14T08:16:07;22.20;60.90
7658;DHT22;8462;53.156;8.220;2023-05-14T08:18:40;22.20;59.70
7658;DHT22;8462;53.156;8.220;2023-05-14T08:21:07;22.20;60.00
7658;DHT22;8462;53.156;8.220;2023-05-14T08:23:33;22.10;60.20
7658;DHT22;8462;53.156;8.220;2023-05-14T08:26:00;22.20;60.60
7658;DHT22;8462;53.156;8.220;2023-05-14T08:28:28;22.40;60.20
7658;DHT22;8462;53.156;8.220;2023-05-14T08:30:54;22.60;58.40
7658;DHT22;8462;53.156;8.220;2023-05-14T08:33:23;22.80;58.10
7658;DHT22;8462;53.156;8.220;2023-05-14T08:35:51;22.80;57.60
7658;DHT22;8462;53.156;8.220;2023-05-14T08:38:18;22.80;56.70
7658;DHT22;8462;53.156;8.220;2023-05-14T08:40:47;22.80;56.60
7658;DHT22;8462;53.156;8.220;2023-05-14T08:43:18;22.90;55.40
7658;DHT22;8462;53.156;8.220;2023-05-14T08:45:48;22.90;55.70
7658;DHT22;8462;53.156;8.220;2023-05-14T08:48:20;23.10;56.10
7658;DHT22;8462;53.156;8.220;2023-05-14T08:50:49;23.40;55.70
7658;DHT22;8462;53.156;8.220;2023-05-14T08:53:16;23.60;54.90
7658;DHT22;8462;53.156;8.220;2023-05-14T08:55:44;23.70;54.00
7658;DHT22;8462;53.156;8.220;2023-05-14T08:58:11;23.80;52.90
7658;DHT22;8462;53.156;8.220;2023-05-14T09:00:38;24.00;51.90
7658;DHT22;8462;53.156;8.220;2023-05-14T09:03:05;24.10;53.60
7658;DHT22;8462;53.156;8.220;2023-05-14T09:05:33;24.20;51.70
7658;DHT22;8462;53.156;8.220;2023-05-14T09:08:01;24.40;50.70
7658;DHT22;8462;53.156;8.220;2023-05-14T09:10:28;24.50;50.70
7658;DHT22;8462;53.156;8.220;2023-05-14T09:12:55;24.70;49.70
7658;DHT22;8462;53.156;8.220;2023-05-14T09:15:22;24.90;50.20
7658;DHT22;8462;53.156;8.220;2023-05-14T09:17:52;25.00;49.00
7658;DHT22;8462;53.156;8.220;2023-05-14T09:20:20;25.10;48.90
7658;DHT22;8462;53.156;8.220;2023-05-14T09:22:51;25.20;48.60
7658;DHT22;8462;53.156;8.220;2023-05-14T09:25:25;25.30;47.30
7658;DHT22;8462;53.156;8.220;2023-05-14T09:27:52;25.40;48.40
7658;DHT22;8462;53.156;8.220;2023-05-14T09:30:20;25.30;47.90
7658;DHT22;8462;53.156;8.220;2023-05-14T09:32:46;25.40;47.50
7658;DHT22;8462;53.156;8.220;2023-05-14T09:35:17;25.30;47.20
7658;DHT22;8462;53.156;8.220;2023-05-14T09:37:46;25.30;47.50
7658;DHT22;8462;53.156;8.220;2023-05-14T09:40:14;25.20;48.70
7658;DHT22;8462;53.156;8.220;2023-05-14T09:42:43;25.10;48.20
7658;DHT22;8462;53.156;8.220;2023-05-14T09:45:11;24.90;48.10
7658;DHT22;8462;53.156;8.220;2023-05-14T09:47:44;24.90;47.80
7658;DHT22;8462;53.156;8.220;2023-05-14T09:50:11;24.90;47.30
7658;DHT22;8462;53.156;8.220;2023-05-14T09:52:38;24.80;47.10
7658;DHT22;8462;53.156;8.220;2023-05-14T09:55:06;25.00;45.90
7658;DHT22;8462;53.156;8.220;2023-05-14T09:57:33;25.20;46.10
7658;DHT22;8462;53.156;8.220;2023-05-14T10:00:02;25.50;46.00
7658;DHT22;8462;53.156;8.220;2023-05-14T10:02:35;25.70;45.90
7658;DHT22;8462;53.156;8.220;2023-05-14T10:05:04;25.90;45.40
7658;DHT22;8462;53.156;8.220;2023-05-14T10:07:35;26.00;45.30
7658;DHT22;8462;53.156;8.220;2023-05-14T10:10:06;26.00;45.00
7658;DHT22;8462;53.156;8.220;2023-05-14T10:12:38;26.00;45.20
7658;DHT22;8462;53.156;8.220;2023-05-14T10:15:13;26.00;45.50
7658;DHT22;8462;53.156;8.220;2023-05-14T10:17:44;26.20;45.20
7658;DHT22;8462;53.156;8.220;2023-05-14T10:20:14;26.20;43.60
7658;DHT22;8462;53.156;8.220;2023-05-14T10:22:42;26.00;43.30
7658;DHT22;8462;53.156;8.220;2023-05-14T10:25:09;25.90;43.00
7658;DHT22;8462;53.156;8.220;2023-05-14T10:27:37;25.90;44.40
7658;DHT22;8462;53.156;8.220;2023-05-14T10:30:10;25.70;43.70
7658;DHT22;8462;53.156;8.220;2023-05-14T10:32:39;25.60;44.00
7658;DHT22;8462;53.156;8.220;2023-05-14T10:35:16;25.70;43.90
7658;DHT22;8462;53.156;8.220;2023-05-14T10:37:45;25.80;43.10
7658;DHT22;8462;53.156;8.220;2023-05-14T10:40:13;25.80;43.70
7658;DHT22;8462;53.156;8.220;2023-05-14T10:42:40;25.80;43.90
7658;DHT22;8462;53.156;8.220;2023-05-14T10:45:11;26.00;44.10
7658;DHT22;8462;53.156;8.220;2023-05-14T10:47:40;26.00;43.00
7658;DHT22;8462;53.156;8.220;2023-05-14T10:50:09;25.90;43.00
7658;DHT22;8462;53.156;8.220;2023-05-14T10:52:37;25.70;43.80
7658;DHT22;8462;53.156;8.220;2023-05-14T10:55:05;25.50;43.90
7658;DHT22;8462;53.156;8.220;2023-05-14T10:57:36;25.40;44.30
7658;DHT22;8462;53.156;8.220;2023-05-14T11:00:05;25.40;44.70
7658;DHT22;8462;53.156;8.220;2023-05-14T11:02:36;25.40;44.30
7658;DHT22;8462;53.156;8.220;2023-05-14T11:05:04;25.40;45.40
7658;DHT22;8462;53.156;8.220;2023-05-14T11:07:34;25.40;43.00
7658;DHT22;8462;53.156;8.220;2023-05-14T11:10:03;25.40;43.60
7658;DHT22;8462;53.156;8.220;2023-05-14T11:12:30;25.40;43.60
7658;DHT22;8462;53.156;8.220;2023-05-14T11:14:59;25.40;43.90
7658;DHT22;8462;53.156;8.220;2023-05-14T11:17:28;25.50;43.40
7658;DHT22;8462;53.156;8.220;2023-05-14T11:19:57;25.60;43.90
7658;DHT22;8462;53.156;8.220;2023-05-14T11:22:24;25.60;42.80
7658;DHT22;8462;53.156;8.220;2023-05-14T11:24:51;25.50;43.40
7658;DHT22;8462;53.156;8.220;2023-05-14T11:27:20;25.50;43.60
7658;DHT22;8462;53.156;8.220;2023-05-14T11:29:48;25.60;44.00
7658;DHT22;8462;53.156;8.220;2023-05-14T11:32:16;25.70;43.20
7658;DHT22;8462;53.156;8.220;2023-05-14T11:34:43;25.60;42.20
7658;DHT22;8462;53.156;8.220;2023-05-14T11:37:14;25.70;41.20
7658;DHT22;8462;53.156;8.220;2023-05-14T11:39:46;25.80;41.20
7658;DHT22;8462;53.156;8.220;2023-05-14T11:42:14;25.80;41.00
7658;DHT22;8462;53.156;8.220;2023-05-14T11:44:44;25.90;40.80
7658;DHT22;8462;53.156;8.220;2023-05-14T11:47:11;25.80;39.90
7658;DHT22;8462;53.156;8.220;2023-05-14T11:49:38;25.70;41.00
7658;DHT22;8462;53.156;8.220;2023-05-14T11:52:06;25.60;40.80
7658;DHT22;8462;53.156;8.220;2023-05-14T11:54:36;25.40;43.00
7658;DHT22;8462;53.156;8.220;2023-05-14T11:57:08;25.50;41.80
7658;DHT22;8462;53.156;8.220;2023-05-14T11:59:35;25.80;40.90
7658;DHT22;8462;53.156;8.220;2023-05-14T12:02:03;26.00;39.50
7658;DHT22;8462;53.156;8.220;2023-05-14T12:04:30;26.00;39.80
7658;DHT22;8462;53.156;8.220;2023-05-14T12:06:58;26.00;40.40
7658;DHT22;8462;53.156;8.220;2023-05-14T12:09:25;26.00;40.90
7658;DHT22;8462;53.156;8.220;2023-05-14T12:11:54;26.10;40.50
7658;DHT22;8462;53.156;8.220;2023-05-14T12:14:22;26.30;40.40
7658;DHT22;8462;53.156;8.220;2023-05-14T12:16:50;26.30;40.70
7658;DHT22;8462;53.156;8.220;2023-05-14T12:19:18;26.30;40.60
7658;DHT22;8462;53.156;8.220;2023-05-14T12:21:46;26.10;41.80
7658;DHT22;8462;53.156;8.220;2023-05-14T12:24:17;26.00;41.20
7658;DHT22;8462;53.156;8.220;2023-05-14T12:26:44;26.00;41.30
7658;DHT22;8462;53.156;8.220;2023-05-14T12:29:14;25.90;41.60
7658;DHT22;8462;53.156;8.220;2023-05-14T12:31:44;26.00;42.00
7658;DHT22;8462;53.156;8.220;2023-05-14T12:34:12;26.10;41.80
7658;DHT22;8462;53.156;8.220;2023-05-14T12:36:39;26.20;42.00
7658;DHT22;8462;53.156;8.220;2023-05-14T12:39:06;26.00;41.90
7658;DHT22;8462;53.156;8.220;2023-05-14T12:41:33;25.90;41.40
7658;DHT22;8462;53.156;8.220;2023-05-14T12:44:00;25.70;42.50
7658;DHT22;8462;53.156;8.220;2023-05-14T12:46:29;25.60;42.00
7658;DHT22;8462;53.156;8.220;2023-05-14T12:48:56;25.40;42.10
7658;DHT22;8462;53.156;8.220;2023-05-14T12:51:24;25.20;42.50
7658;DHT22;8462;53.156;8.220;2023-05-14T12:53:51;25.20;42.10
7658;DHT22;8462;53.156;8.220;2023-05-14T12:56:18;25.10;42.50
7658;DHT22;8462;53.156;8.220;2023-05-14T12:58:46;25.10;43.60
7658;DHT22;8462;53.156;8.220;2023-05-14T13:01:13;25.10;42.60
7658;DHT22;8462;53.156;8.220;2023-05-14T13:03:41;25.10;42.70
7658;DHT22;8462;53.156;8.220;2023-05-14T13:06:08;25.00;41.50
7658;DHT22;8462;53.156;8.220;2023-05-14T13:08:35;25.00;41.70
7658;DHT22;8462;53.156;8.220;2023-05-14T13:11:02;25.10;42.10
7658;DHT22;8462;53.156;8.220;2023-05-14T13:13:28;25.00;41.70
7658;DHT22;8462;53.156;8.220;2023-05-14T13:15:55;25.20;42.60
7658;DHT22;8462;53.156;8.220;2023-05-14T13:18:22;25.40;42.10
7658;DHT22;8462;53.156;8.220;2023-05-14T13:20:53;25.40;42.70
7658;DHT22;8462;53.156;8.220;2023-05-14T13:23:20;25.50;41.60
7658;DHT22;8462;53.156;8.220;2023-05-14T13:25:47;25.50;42.00
7658;DHT22;8462;53.156;8.220;2023-05-14T13:28:14;25.50;42.00
7658;DHT22;8462;53.156;8.220;2023-05-14T13:30:41;25.60;40.90
7658;DHT22;8462;53.156;8.220;2023-05-14T13:33:28;25.60;41.40
7658;DHT22;8462;53.156;8.220;2023-05-14T13:35:56;25.50;41.20
7658;DHT22;8462;53.156;8.220;2023-05-14T13:38:23;25.40;41.10
7658;DHT22;8462;53.156;8.220;2023-05-14T13:40:49;25.30;41.50
7658;DHT22;8462;53.156;8.220;2023-05-14T13:43:17;25.20;41.50
7658;DHT22;8462;53.156;8.220;2023-05-14T13:45:44;25.10;42.00
7658;DHT22;8462;53.156;8.220;2023-05-14T13:48:11;25.30;42.50
7658;DHT22;8462;53.156;8.220;2023-05-14T13:50:37;25.40;42.40
7658;DHT22;8462;53.156;8.220;2023-05-14T13:53:06;25.60;42.30
7658;DHT22;8462;53.156;8.220;2023-05-14T13:55:33;25.70;41.60
7658;DHT22;8462;53.156;8.220;2023-05-14T13:58:01;25.70;41.80
7658;DHT22;8462;53.156;8.220;2023-05-14T14:00:28;25.60;41.00
7658;DHT22;8462;53.156;8.220;2023-05-14T14:02:54;25.50;41.50
7658;DHT22;8462;53.156;8.220;2023-05-14T14:05:21;25.50;41.20
7658;DHT22;8462;53.156;8.220;2023-05-14T14:07:53;25.40;41.30
7658;DHT22;8462;53.156;8.220;2023-05-14T14:10:21;25.30;40.90
7658;DHT22;8462;53.156;8.220;2023-05-14T14:12:48;25.20;40.40
7658;DHT22;8462;53.156;8.220;2023-05-14T14:15:15;25.20;40.60
7658;DHT22;8462;53.156;8.220;2023-05-14T14:17:42;25.30;41.70
7658;DHT22;8462;53.156;8.220;2023-05-14T14:20:10;25.40;42.10
7658;DHT22;8462;53.156;8.220;2023-05-14T14:22:39;25.40;41.60
7658;DHT22;8462;53.156;8.220;2023-05-14T14:25:06;25.40;42.20
7658;DHT22;8462;53.156;8.220;2023-05-14T14:27:35;25.30;41.80
7658;DHT22;8462;53.156;8.220;2023-05-14T14:30:05;25.00;40.80
7658;DHT22;8462;53.156;8.220;2023-05-14T14:32:32;25.00;40.30
7658;DHT22;8462;53.156;8.220;2023-05-14T14:34:59;24.80;40.90
7658;DHT22;8462;53.156;8.220;2023-05-14T14:37:26;24.80;41.00
7658;DHT22;8462;53.156;8.220;2023-05-14T14:39:52;24.80;41.10
7658;DHT22;8462;53.156;8.220;2023-05-14T14:42:19;24.80;41.20
7658;DHT22;8462;53.156;8.220;2023-05-14T14:44:48;24.80;41.30
7658;DHT22;8462;53.156;8.220;2023-05-14T14:47:15;24.80;41.60
7658;DHT22;8462;53.156;8.220;2023-05-14T14:49:42;24.70;41.30
7658;DHT22;8462;53.156;8.220;2023-05-14T14:52:09;24.70;42.00
7658;DHT22;8462;53.156;8.220;2023-05-14T14:54:35;24.70;41.20
7658;DHT22;8462;53.156;8.220;2023-05-14T14:57:03;24.60;40.90
7658;DHT22;8462;53.156;8.220;2023-05-14T14:59:29;24.70;41.60
7658;DHT22;8462;53.156;8.220;2023-05-14T15:01:58;24.60;41.00
7658;DHT22;8462;53.156;8.220;2023-05-14T15:04:25;24.60;41.60
7658;DHT22;8462;53.156;8.220;2023-05-14T15:06:52;24.60;42.20
7658;DHT22;8462;53.156;8.220;2023-05-14T15:09:19;24.70;41.90
7658;DHT22;8462;53.156;8.220;2023-05-14T15:11:46;24.60;42.20
7658;DHT22;8462;53.156;8.220;2023-05-14T15:14:12;24.60;42.50
7658;DHT22;8462;53.156;8.220;2023-05-14T15:16:40;24.60;42.80
7658;DHT22;8462;53.156;8.220;2023-05-14T15:19:09;24.60;41.90
7658;DHT22;8462;53.156;8.220;2023-05-14T15:21:35;24.50;42.50
7658;DHT22;8462;53.156;8.220;2023-05-14T15:24:03;24.40;42.10
7658;DHT22;8462;53.156;8.220;2023-05-14T15:26:30;24.40;41.80
7658;DHT22;8462;53.156;8.220;2023-05-14T15:28:57;24.40;42.00
7658;DHT22;8462;53.156;8.220;2023-05-14T15:31:24;24.40;41.70
7658;DHT22;8462;53.156;8.220;2023-05-14T15:33:52;24.40;42.00
7658;DHT22;8462;53.156;8.220;2023-05-14T15:36:21;24.50;42.00
7658;DHT22;8462;53.156;8.220;2023-05-14T15:38:48;24.70;41.50
7658;DHT22;8462;53.156;8.220;2023-05-14T15:41:15;24.80;40.90
7658;DHT22;8462;53.156;8.220;2023-05-14T15:43:42;24.80;40.70
7658;DHT22;8462;53.156;8.220;2023-05-14T15:46:09;24.90;40.30
7658;DHT22;8462;53.156;8.220;2023-05-14T15:48:36;25.00;40.80
7658;DHT22;8462;53.156;8.220;2023-05-14T15:51:03;25.00;40.30
7658;DHT22;8462;53.156;8.220;2023-05-14T15:53:32;25.00;39.90
7658;DHT22;8462;53.156;8.220;2023-05-14T15:55:59;25.00;40.00
7658;DHT22;8462;53.156;8.220;2023-05-14T15:58:25;25.00;40.30
7658;DHT22;8462;53.156;8.220;2023-05-14T16:00:52;25.00;40.30
7658;DHT22;8462;53.156;8.220;2023-05-14T16:03:19;25.00;40.50
7658;DHT22;8462;53.156;8.220;2023-05-14T16:05:48;25.00;39.40